Terminal Aerodrome Forecast
Issued by NWS Mt. Holly, NJ

Home | Current Version | Previous Version | Text Only | Print | Product List | Glossary On
Versions: 1 2 3 4 5 6 7 8 9 10 11 12 13 14 15 16 17 18 19
000
FTUS41 KPHI 092124 AAA
TAFABE
TAF AMD
KABE 092124Z 0921/1018 09007KT 2SM -SN BKN008 OVC020
      TEMPO 0922/1002 1/2SM SN FG OVC005
     FM100200 08007KT 2SM -SN OVC007
     FM100400 05005KT 3SM BR OVC009
     FM100500 28006KT 4SM BR OVC010
     FM101000 29008KT 4SM BR OVC015
     FM101200 30010G15KT P6SM SCT020 BKN060=

USA.gov is the U.S. government's official web portal to all federal, state and local government web resources and services.